sensor_id;sensor_type;location;lat;lon;timestamp;P1;durP1;ratioP1;P2;durP2;ratioP2
15402;SDS011;7799;53.478;10.170;2023-03-01T00:00:05;2.60;;;2.40;;
15402;SDS011;7799;53.478;10.170;2023-03-01T00:02:36;3.63;;;3.13;;
15402;SDS011;7799;53.478;10.170;2023-03-01T00:05:03;3.67;;;3.17;;
15402;SDS011;7799;53.478;10.170;2023-03-01T00:07:32;3.13;;;2.83;;
15402;SDS011;7799;53.478;10.170;2023-03-01T00:09:59;5.17;;;4.07;;
15402;SDS011;7799;53.478;10.170;2023-03-01T00:12:27;3.53;;;3.23;;
15402;SDS011;7799;53.478;10.170;2023-03-01T00:14:53;3.27;;;2.97;;
15402;SDS011;7799;53.478;10.170;2023-03-01T00:17:20;2.97;;;2.77;;
15402;SDS011;7799;53.478;10.170;2023-03-01T00:19:47;3.00;;;2.57;;
15402;SDS011;7799;53.478;10.170;2023-03-01T00:22:13;2.90;;;2.60;;
15402;SDS011;7799;53.478;10.170;2023-03-01T00:24:40;3.63;;;3.33;;
15402;SDS011;7799;53.478;10.170;2023-03-01T00:27:07;2.60;;;2.40;;
15402;SDS011;7799;53.478;10.170;2023-03-01T00:29:35;3.07;;;2.53;;
15402;SDS011;7799;53.478;10.170;2023-03-01T00:32:01;2.93;;;2.50;;
15402;SDS011;7799;53.478;10.170;2023-03-01T00:34:28;3.13;;;2.53;;
15402;SDS011;7799;53.478;10.170;2023-03-01T00:36:55;2.67;;;2.13;;
15402;SDS011;7799;53.478;10.170;2023-03-01T00:39:30;2.63;;;2.40;;
15402;SDS011;7799;53.478;10.170;2023-03-01T00:41:57;2.50;;;2.20;;
15402;SDS011;7799;53.478;10.170;2023-03-01T00:44:24;2.57;;;1.87;;
15402;SDS011;7799;53.478;10.170;2023-03-01T00:46:52;2.57;;;2.17;;
15402;SDS011;7799;53.478;10.170;2023-03-01T00:49:18;2.47;;;2.17;;
15402;SDS011;7799;53.478;10.170;2023-03-01T00:51:45;3.73;;;3.00;;
15402;SDS011;7799;53.478;10.170;2023-03-01T00:54:12;3.13;;;2.57;;
15402;SDS011;7799;53.478;10.170;2023-03-01T00:56:38;2.40;;;2.20;;
15402;SDS011;7799;53.478;10.170;2023-03-01T00:59:05;2.60;;;2.40;;
15402;SDS011;7799;53.478;10.170;2023-03-01T01:01:31;2.50;;;2.30;;
15402;SDS011;7799;53.478;10.170;2023-03-01T01:04:00;2.37;;;2.17;;
15402;SDS011;7799;53.478;10.170;2023-03-01T01:06:29;2.20;;;2.00;;
15402;SDS011;7799;53.478;10.170;2023-03-01T01:08:58;2.17;;;1.80;;
15402;SDS011;7799;53.478;10.170;2023-03-01T01:11:26;2.83;;;2.00;;
15402;SDS011;7799;53.478;10.170;2023-03-01T01:13:53;2.37;;;2.17;;
15402;SDS011;7799;53.478;10.170;2023-03-01T01:16:21;2.20;;;2.00;;
15402;SDS011;7799;53.478;10.170;2023-03-01T01:18:49;2.13;;;1.90;;
15402;SDS011;7799;53.478;10.170;2023-03-01T01:21:18;2.87;;;2.60;;
15402;SDS011;7799;53.478;10.170;2023-03-01T01:23:47;2.60;;;2.03;;
15402;SDS011;7799;53.478;10.170;2023-03-01T01:26:14;2.57;;;2.03;;
15402;SDS011;7799;53.478;10.170;2023-03-01T01:28:41;2.03;;;1.90;;
15402;SDS011;7799;53.478;10.170;2023-03-01T01:31:08;2.40;;;1.70;;
15402;SDS011;7799;53.478;10.170;2023-03-01T01:33:35;1.87;;;1.70;;
15402;SDS011;7799;53.478;10.170;2023-03-01T01:36:02;1.90;;;1.80;;
15402;SDS011;7799;53.478;10.170;2023-03-01T01:38:31;1.83;;;1.70;;
15402;SDS011;7799;53.478;10.170;2023-03-01T01:40:58;2.23;;;2.03;;
15402;SDS011;7799;53.478;10.170;2023-03-01T01:43:26;2.13;;;1.77;;
15402;SDS011;7799;53.478;10.170;2023-03-01T01:45:55;1.97;;;1.83;;
15402;SDS011;7799;53.478;10.170;2023-03-01T01:48:23;1.90;;;1.80;;
15402;SDS011;7799;53.478;10.170;2023-03-01T01:50:52;2.30;;;1.90;;
15402;SDS011;7799;53.478;10.170;2023-03-01T01:53:21;2.10;;;1.80;;
15402;SDS011;7799;53.478;10.170;2023-03-01T01:55:51;1.87;;;1.77;;
15402;SDS011;7799;53.478;10.170;2023-03-01T01:58:22;2.00;;;1.73;;
15402;SDS011;7799;53.478;10.170;2023-03-01T02:00:50;2.00;;;1.60;;
15402;SDS011;7799;53.478;10.170;2023-03-01T02:03:18;1.60;;;1.50;;
15402;SDS011;7799;53.478;10.170;2023-03-01T02:05:50;1.80;;;1.70;;
15402;SDS011;7799;53.478;10.170;2023-03-01T02:08:19;1.53;;;1.47;;
15402;SDS011;7799;53.478;10.170;2023-03-01T02:10:47;2.37;;;1.93;;
15402;SDS011;7799;53.478;10.170;2023-03-01T02:13:15;1.97;;;1.63;;
15402;SDS011;7799;53.478;10.170;2023-03-01T02:15:42;2.30;;;2.10;;
15402;SDS011;7799;53.478;10.170;2023-03-01T02:18:10;2.50;;;2.30;;
15402;SDS011;7799;53.478;10.170;2023-03-01T02:20:40;2.07;;;1.87;;
15402;SDS011;7799;53.478;10.170;2023-03-01T02:23:14;2.13;;;1.90;;
15402;SDS011;7799;53.478;10.170;2023-03-01T02:25:44;2.17;;;2.00;;
15402;SDS011;7799;53.478;10.170;2023-03-01T02:28:29;2.10;;;2.00;;
15402;SDS011;7799;53.478;10.170;2023-03-01T02:30:56;2.20;;;2.00;;
15402;SDS011;7799;53.478;10.170;2023-03-01T02:33:41;2.20;;;2.00;;
15402;SDS011;7799;53.478;10.170;2023-03-01T02:36:10;1.80;;;1.67;;
15402;SDS011;7799;53.478;10.170;2023-03-01T02:38:39;1.90;;;1.80;;
15402;SDS011;7799;53.478;10.170;2023-03-01T02:41:07;1.90;;;1.80;;
15402;SDS011;7799;53.478;10.170;2023-03-01T02:43:35;1.80;;;1.70;;
15402;SDS011;7799;53.478;10.170;2023-03-01T02:46:04;1.80;;;1.70;;
15402;SDS011;7799;53.478;10.170;2023-03-01T02:48:39;2.70;;;2.50;;
15402;SDS011;7799;53.478;10.170;2023-03-01T02:51:11;2.67;;;2.20;;
15402;SDS011;7799;53.478;10.170;2023-03-01T02:53:48;2.60;;;2.40;;
15402;SDS011;7799;53.478;10.170;2023-03-01T02:56:19;3.27;;;2.30;;
15402;SDS011;7799;53.478;10.170;2023-03-01T02:58:47;2.37;;;2.17;;
15402;SDS011;7799;53.478;10.170;2023-03-01T03:01:17;2.10;;;1.90;;
15402;SDS011;7799;53.478;10.170;2023-03-01T03:03:44;2.13;;;1.93;;
15402;SDS011;7799;53.478;10.170;2023-03-01T03:06:11;2.30;;;2.10;;
15402;SDS011;7799;53.478;10.170;2023-03-01T03:08:38;2.67;;;2.07;;
15402;SDS011;7799;53.478;10.170;2023-03-01T03:11:05;2.17;;;1.90;;
15402;SDS011;7799;53.478;10.170;2023-03-01T03:13:31;1.70;;;1.60;;
15402;SDS011;7799;53.478;10.170;2023-03-01T03:15:59;2.07;;;1.90;;
15402;SDS011;7799;53.478;10.170;2023-03-01T03:18:28;1.73;;;1.63;;
15402;SDS011;7799;53.478;10.170;2023-03-01T03:20:55;2.00;;;1.90;;
15402;SDS011;7799;53.478;10.170;2023-03-01T03:23:22;1.93;;;1.77;;
15402;SDS011;7799;53.478;10.170;2023-03-01T03:25:49;1.83;;;1.70;;
15402;SDS011;7799;53.478;10.170;2023-03-01T03:28:16;2.43;;;1.80;;
15402;SDS011;7799;53.478;10.170;2023-03-01T03:30:43;2.00;;;1.90;;
15402;SDS011;7799;53.478;10.170;2023-03-01T03:33:11;2.40;;;2.20;;
15402;SDS011;7799;53.478;10.170;2023-03-01T03:35:40;2.20;;;2.00;;
15402;SDS011;7799;53.478;10.170;2023-03-01T03:38:08;1.80;;;1.70;;
15402;SDS011;7799;53.478;10.170;2023-03-01T03:40:41;1.87;;;1.77;;
15402;SDS011;7799;53.478;10.170;2023-03-01T03:43:09;1.60;;;1.50;;
15402;SDS011;7799;53.478;10.170;2023-03-01T03:45:38;1.73;;;1.63;;
15402;SDS011;7799;53.478;10.170;2023-03-01T03:48:05;2.13;;;1.80;;
15402;SDS011;7799;53.478;10.170;2023-03-01T03:50:35;2.47;;;1.97;;
15402;SDS011;7799;53.478;10.170;2023-03-01T03:53:03;3.03;;;2.83;;
15402;SDS011;7799;53.478;10.170;2023-03-01T03:55:32;3.90;;;3.40;;
15402;SDS011;7799;53.478;10.170;2023-03-01T03:57:59;3.37;;;3.03;;
15402;SDS011;7799;53.478;10.170;2023-03-01T04:00:32;3.73;;;3.17;;
15402;SDS011;7799;53.478;10.170;2023-03-01T04:02:59;3.67;;;3.33;;
15402;SDS011;7799;53.478;10.170;2023-03-01T04:05:26;3.77;;;2.60;;
15402;SDS011;7799;53.478;10.170;2023-03-01T04:07:54;3.23;;;2.93;;
15402;SDS011;7799;53.478;10.170;2023-03-01T04:10:27;2.77;;;2.50;;
15402;SDS011;7799;53.478;10.170;2023-03-01T04:12:55;2.70;;;2.20;;
15402;SDS011;7799;53.478;10.170;2023-03-01T04:15:22;2.47;;;2.27;;
15402;SDS011;7799;53.478;10.170;2023-03-01T04:17:49;2.20;;;2.00;;
15402;SDS011;7799;53.478;10.170;2023-03-01T04:20:18;3.77;;;2.73;;
15402;SDS011;7799;53.478;10.170;2023-03-01T04:22:50;2.80;;;2.27;;
15402;SDS011;7799;53.478;10.170;2023-03-01T04:25:19;2.50;;;2.30;;
15402;SDS011;7799;53.478;10.170;2023-03-01T04:27:45;2.57;;;2.37;;
15402;SDS011;7799;53.478;10.170;2023-03-01T04:30:12;2.17;;;1.80;;
15402;SDS011;7799;53.478;10.170;2023-03-01T04:32:39;2.00;;;1.90;;
15402;SDS011;7799;53.478;10.170;2023-03-01T04:35:06;2.30;;;2.10;;
15402;SDS011;7799;53.478;10.170;2023-03-01T04:37:33;2.20;;;2.00;;
15402;SDS011;7799;53.478;10.170;2023-03-01T04:40:00;1.63;;;1.53;;
15402;SDS011;7799;53.478;10.170;2023-03-01T04:42:38;1.80;;;1.70;;
15402;SDS011;7799;53.478;10.170;2023-03-01T04:45:06;1.70;;;1.60;;
15402;SDS011;7799;53.478;10.170;2023-03-01T04:47:38;2.07;;;1.90;;
15402;SDS011;7799;53.478;10.170;2023-03-01T04:50:05;2.13;;;1.90;;
15402;SDS011;7799;53.478;10.170;2023-03-01T04:52:33;1.60;;;1.50;;
15402;SDS011;7799;53.478;10.170;2023-03-01T04:55:00;1.73;;;1.63;;
15402;SDS011;7799;53.478;10.170;2023-03-01T04:57:26;1.80;;;1.70;;
15402;SDS011;7799;53.478;10.170;2023-03-01T04:59:55;1.53;;;1.43;;
15402;SDS011;7799;53.478;10.170;2023-03-01T05:02:21;1.70;;;1.60;;
15402;SDS011;7799;53.478;10.170;2023-03-01T05:04:48;1.60;;;1.50;;
15402;SDS011;7799;53.478;10.170;2023-03-01T05:07:15;1.80;;;1.70;;
15402;SDS011;7799;53.478;10.170;2023-03-01T05:09:44;2.37;;;2.10;;
15402;SDS011;7799;53.478;10.170;2023-03-01T05:12:11;3.20;;;2.90;;
15402;SDS011;7799;53.478;10.170;2023-03-01T05:14:38;2.97;;;2.53;;
15402;SDS011;7799;53.478;10.170;2023-03-01T05:17:06;2.00;;;1.90;;
15402;SDS011;7799;53.478;10.170;2023-03-01T05:19:33;2.20;;;2.10;;
15402;SDS011;7799;53.478;10.170;2023-03-01T05:22:00;2.10;;;2.00;;
15402;SDS011;7799;53.478;10.170;2023-03-01T05:24:30;2.17;;;2.00;;
15402;SDS011;7799;53.478;10.170;2023-03-01T05:26:58;1.77;;;1.67;;
15402;SDS011;7799;53.478;10.170;2023-03-01T05:29:25;2.50;;;2.30;;
15402;SDS011;7799;53.478;10.170;2023-03-01T05:31:54;2.53;;;2.33;;
15402;SDS011;7799;53.478;10.170;2023-03-01T05:34:24;2.63;;;2.43;;
15402;SDS011;7799;53.478;10.170;2023-03-01T05:36:51;2.07;;;1.97;;
15402;SDS011;7799;53.478;10.170;2023-03-01T05:39:19;2.47;;;2.10;;
15402;SDS011;7799;53.478;10.170;2023-03-01T05:41:47;2.30;;;2.20;;
15402;SDS011;7799;53.478;10.170;2023-03-01T05:44:14;2.67;;;2.43;;
15402;SDS011;7799;53.478;10.170;2023-03-01T05:46:41;4.17;;;2.93;;
15402;SDS011;7799;53.478;10.170;2023-03-01T05:49:07;7.43;;;4.60;;
15402;SDS011;7799;53.478;10.170;2023-03-01T05:51:35;6.97;;;5.53;;
15402;SDS011;7799;53.478;10.170;2023-03-01T05:54:02;5.50;;;4.60;;
15402;SDS011;7799;53.478;10.170;2023-03-01T05:56:32;4.80;;;4.00;;
15402;SDS011;7799;53.478;10.170;2023-03-01T05:58:59;3.80;;;3.40;;
15402;SDS011;7799;53.478;10.170;2023-03-01T06:01:26;3.73;;;3.30;;
15402;SDS011;7799;53.478;10.170;2023-03-01T06:03:52;2.80;;;2.50;;
15402;SDS011;7799;53.478;10.170;2023-03-01T06:06:19;3.20;;;2.90;;
15402;SDS011;7799;53.478;10.170;2023-03-01T06:08:47;2.73;;;2.53;;
15402;SDS011;7799;53.478;10.170;2023-03-01T06:11:14;3.00;;;2.80;;
15402;SDS011;7799;53.478;10.170;2023-03-01T06:13:40;3.07;;;2.70;;
15402;SDS011;7799;53.478;10.170;2023-03-01T06:16:07;3.77;;;3.13;;
15402;SDS011;7799;53.478;10.170;2023-03-01T06:18:34;3.90;;;3.60;;
15402;SDS011;7799;53.478;10.170;2023-03-01T06:21:01;4.23;;;3.83;;
15402;SDS011;7799;53.478;10.170;2023-03-01T06:23:29;4.07;;;3.73;;
15402;SDS011;7799;53.478;10.170;2023-03-01T06:25:57;4.77;;;4.27;;
15402;SDS011;7799;53.478;10.170;2023-03-01T06:28:23;4.03;;;3.67;;
15402;SDS011;7799;53.478;10.170;2023-03-01T06:30:50;3.17;;;2.93;;
15402;SDS011;7799;53.478;10.170;2023-03-01T06:33:17;2.87;;;2.67;;
15402;SDS011;7799;53.478;10.170;2023-03-01T06:35:45;2.67;;;2.47;;
15402;SDS011;7799;53.478;10.170;2023-03-01T06:38:12;2.50;;;2.30;;
15402;SDS011;7799;53.478;10.170;2023-03-01T06:40:40;2.53;;;2.33;;
15402;SDS011;7799;53.478;10.170;2023-03-01T06:43:08;2.40;;;2.20;;
15402;SDS011;7799;53.478;10.170;2023-03-01T06:45:35;2.03;;;1.93;;
15402;SDS011;7799;53.478;10.170;2023-03-01T06:48:02;2.10;;;1.90;;
15402;SDS011;7799;53.478;10.170;2023-03-01T06:50:29;1.80;;;1.70;;
15402;SDS011;7799;53.478;10.170;2023-03-01T06:52:56;1.93;;;1.83;;
15402;SDS011;7799;53.478;10.170;2023-03-01T06:55:23;1.73;;;1.63;;
15402;SDS011;7799;53.478;10.170;2023-03-01T06:57:53;2.10;;;2.00;;
15402;SDS011;7799;53.478;10.170;2023-03-01T07:00:22;2.53;;;2.13;;
15402;SDS011;7799;53.478;10.170;2023-03-01T07:02:49;2.70;;;2.50;;
15402;SDS011;7799;53.478;10.170;2023-03-01T07:05:16;2.60;;;2.40;;
15402;SDS011;7799;53.478;10.170;2023-03-01T07:07:43;3.03;;;2.80;;
15402;SDS011;7799;53.478;10.170;2023-03-01T07:10:10;2.97;;;2.77;;
15402;SDS011;7799;53.478;10.170;2023-03-01T07:12:37;2.93;;;2.70;;
15402;SDS011;7799;53.478;10.170;2023-03-01T07:15:04;2.70;;;2.50;;
15402;SDS011;7799;53.478;10.170;2023-03-01T07:17:35;2.30;;;2.10;;
15402;SDS011;7799;53.478;10.170;2023-03-01T07:20:02;2.57;;;2.47;;
15402;SDS011;7799;53.478;10.170;2023-03-01T07:22:29;2.43;;;2.23;;
15402;SDS011;7799;53.478;10.170;2023-03-01T07:24:56;2.20;;;2.00;;
15402;SDS011;7799;53.478;10.170;2023-03-01T07:27:23;2.23;;;2.03;;
15402;SDS011;7799;53.478;10.170;2023-03-01T07:29:50;2.57;;;2.37;;
15402;SDS011;7799;53.478;10.170;2023-03-01T07:32:16;3.10;;;2.90;;
15402;SDS011;7799;53.478;10.170;2023-03-01T07:34:44;3.87;;;2.97;;
15402;SDS011;7799;53.478;10.170;2023-03-01T07:37:11;5.17;;;4.70;;
15402;SDS011;7799;53.478;10.170;2023-03-01T07:39:38;6.73;;;5.33;;
15402;SDS011;7799;53.478;10.170;2023-03-01T07:42:04;5.60;;;5.10;;
15402;SDS011;7799;53.478;10.170;2023-03-01T07:44:32;4.73;;;4.30;;
15402;SDS011;7799;53.478;10.170;2023-03-01T07:46:59;5.40;;;4.90;;
15402;SDS011;7799;53.478;10.170;2023-03-01T07:49:26;3.97;;;3.37;;
15402;SDS011;7799;53.478;10.170;2023-03-01T07:51:54;3.90;;;3.60;;
15402;SDS011;7799;53.478;10.170;2023-03-01T07:54:21;4.50;;;4.10;;
15402;SDS011;7799;53.478;10.170;2023-03-01T07:56:48;4.27;;;3.87;;
15402;SDS011;7799;53.478;10.170;2023-03-01T07:59:14;4.43;;;4.03;;
15402;SDS011;7799;53.478;10.170;2023-03-01T08:01:41;4.17;;;3.87;;
15402;SDS011;7799;53.478;10.170;2023-03-01T08:04:08;4.53;;;4.13;;
15402;SDS011;7799;53.478;10.170;2023-03-01T08:06:35;4.53;;;4.13;;
15402;SDS011;7799;53.478;10.170;2023-03-01T08:09:03;5.20;;;4.70;;
15402;SDS011;7799;53.478;10.170;2023-03-01T08:11:30;5.40;;;4.90;;
15402;SDS011;7799;53.478;10.170;2023-03-01T08:13:57;4.10;;;3.50;;
15402;SDS011;7799;53.478;10.170;2023-03-01T08:16:23;3.50;;;3.13;;
15402;SDS011;7799;53.478;10.170;2023-03-01T08:18:50;3.13;;;2.90;;
15402;SDS011;7799;53.478;10.170;2023-03-01T08:21:17;3.00;;;2.80;;
15402;SDS011;7799;53.478;10.170;2023-03-01T08:23:44;2.90;;;2.70;;
15402;SDS011;7799;53.478;10.170;2023-03-01T08:26:13;2.70;;;2.50;;
15402;SDS011;7799;53.478;10.170;2023-03-01T08:28:42;2.50;;;2.30;;
15402;SDS011;7799;53.478;10.170;2023-03-01T08:31:15;3.00;;;2.80;;
15402;SDS011;7799;53.478;10.170;2023-03-01T08:33:43;2.70;;;2.43;;
15402;SDS011;7799;53.478;10.170;2023-03-01T08:36:15;3.00;;;2.80;;
15402;SDS011;7799;53.478;10.170;2023-03-01T08:38:42;3.23;;;2.97;;
15402;SDS011;7799;53.478;10.170;2023-03-01T08:41:09;4.17;;;3.67;;
15402;SDS011;7799;53.478;10.170;2023-03-01T08:43:37;3.83;;;3.30;;
15402;SDS011;7799;53.478;10.170;2023-03-01T08:46:04;3.67;;;3.10;;
15402;SDS011;7799;53.478;10.170;2023-03-01T08:48:30;3.33;;;2.87;;
15402;SDS011;7799;53.478;10.170;2023-03-01T08:50:59;3.77;;;3.07;;
15402;SDS011;7799;53.478;10.170;2023-03-01T08:53:33;3.50;;;3.10;;
15402;SDS011;7799;53.478;10.170;2023-03-01T08:56:00;3.77;;;3.30;;
15402;SDS011;7799;53.478;10.170;2023-03-01T08:58:27;3.63;;;3.30;;
15402;SDS011;7799;53.478;10.170;2023-03-01T09:00:55;3.97;;;3.53;;
15402;SDS011;7799;53.478;10.170;2023-03-01T09:03:22;3.60;;;3.30;;
15402;SDS011;7799;53.478;10.170;2023-03-01T09:05:49;3.10;;;2.90;;
15402;SDS011;7799;53.478;10.170;2023-03-01T09:08:16;3.60;;;3.30;;
15402;SDS011;7799;53.478;10.170;2023-03-01T09:10:43;3.63;;;3.33;;
15402;SDS011;7799;53.478;10.170;2023-03-01T09:13:10;3.47;;;3.17;;
15402;SDS011;7799;53.478;10.170;2023-03-01T09:15:37;4.30;;;3.53;;
15402;SDS011;7799;53.478;10.170;2023-03-01T09:18:05;3.83;;;3.53;;
15402;SDS011;7799;53.478;10.170;2023-03-01T09:20:32;3.80;;;3.50;;
15402;SDS011;7799;53.478;10.170;2023-03-01T09:22:59;3.83;;;3.53;;
15402;SDS011;7799;53.478;10.170;2023-03-01T09:25:25;4.17;;;3.80;;
15402;SDS011;7799;53.478;10.170;2023-03-01T09:27:53;4.43;;;4.03;;
15402;SDS011;7799;53.478;10.170;2023-03-01T09:30:22;4.30;;;4.00;;
15402;SDS011;7799;53.478;10.170;2023-03-01T09:32:49;4.50;;;4.10;;
15402;SDS011;7799;53.478;10.170;2023-03-01T09:35:17;4.40;;;4.00;;
15402;SDS011;7799;53.478;10.170;2023-03-01T09:37:45;4.50;;;4.10;;
15402;SDS011;7799;53.478;10.170;2023-03-01T09:40:12;4.20;;;3.80;;
15402;SDS011;7799;53.478;10.170;2023-03-01T09:42:45;4.60;;;4.20;;
15402;SDS011;7799;53.478;10.170;2023-03-01T09:45:16;4.23;;;3.83;;
15402;SDS011;7799;53.478;10.170;2023-03-01T09:47:48;5.03;;;4.53;;
15402;SDS011;7799;53.478;10.170;2023-03-01T09:50:17;4.53;;;4.13;;
15402;SDS011;7799;53.478;10.170;2023-03-01T09:52:46;4.90;;;3.70;;
15402;SDS011;7799;53.478;10.170;2023-03-01T09:55:16;4.70;;;4.30;;
15402;SDS011;7799;53.478;10.170;2023-03-01T09:57:47;5.90;;;5.00;;
15402;SDS011;7799;53.478;10.170;2023-03-01T10:00:25;5.13;;;4.53;;
15402;SDS011;7799;53.478;10.170;2023-03-01T10:02:57;5.13;;;4.70;;
15402;SDS011;7799;53.478;10.170;2023-03-01T10:05:34;4.80;;;4.40;;
15402;SDS011;7799;53.478;10.170;2023-03-01T10:08:21;4.30;;;4.00;;
15402;SDS011;7799;53.478;10.170;2023-03-01T10:10:54;5.47;;;5.07;;
15402;SDS011;7799;53.478;10.170;2023-03-01T10:13:21;5.10;;;4.70;;
15402;SDS011;7799;53.478;10.170;2023-03-01T10:15:51;6.03;;;5.43;;
15402;SDS011;7799;53.478;10.170;2023-03-01T10:18:21;5.00;;;4.60;;
15402;SDS011;7799;53.478;10.170;2023-03-01T10:20:52;4.97;;;4.57;;
15402;SDS011;7799;53.478;10.170;2023-03-01T10:23:20;5.10;;;4.70;;
15402;SDS011;7799;53.478;10.170;2023-03-01T10:25:53;5.27;;;4.87;;
15402;SDS011;7799;53.478;10.170;2023-03-01T10:28:25;5.20;;;4.77;;
15402;SDS011;7799;53.478;10.170;2023-03-01T10:30:56;5.93;;;5.43;;
15402;SDS011;7799;53.478;10.170;2023-03-01T10:33:25;6.13;;;5.53;;
15402;SDS011;7799;53.478;10.170;2023-03-01T10:35:54;6.03;;;5.43;;
15402;SDS011;7799;53.478;10.170;2023-03-01T10:38:21;6.30;;;5.70;;
15402;SDS011;7799;53.478;10.170;2023-03-01T10:40:52;5.67;;;5.17;;
15402;SDS011;7799;53.478;10.170;2023-03-01T10:43:20;5.90;;;5.40;;
15402;SDS011;7799;53.478;10.170;2023-03-01T10:45:47;5.70;;;5.20;;
15402;SDS011;7799;53.478;10.170;2023-03-01T10:48:15;5.87;;;5.37;;
15402;SDS011;7799;53.478;10.170;2023-03-01T10:50:43;4.93;;;4.53;;
15402;SDS011;7799;53.478;10.170;2023-03-01T10:53:21;5.33;;;4.93;;
15402;SDS011;7799;53.478;10.170;2023-03-01T10:55:56;5.03;;;4.63;;
15402;SDS011;7799;53.478;10.170;2023-03-01T10:58:25;5.53;;;5.03;;
15402;SDS011;7799;53.478;10.170;2023-03-01T11:00:52;5.50;;;5.10;;
15402;SDS011;7799;53.478;10.170;2023-03-01T11:03:21;5.93;;;5.40;;
15402;SDS011;7799;53.478;10.170;2023-03-01T11:08:48;5.20;;;4.70;;
15402;SDS011;7799;53.478;10.170;2023-03-01T11:11:18;5.20;;;4.80;;
15402;SDS011;7799;53.478;10.170;2023-03-01T11:13:52;5.23;;;4.73;;
15402;SDS011;7799;53.478;10.170;2023-03-01T11:16:31;5.47;;;4.97;;
15402;SDS011;7799;53.478;10.170;2023-03-01T11:19:00;5.07;;;4.67;;
15402;SDS011;7799;53.478;10.170;2023-03-01T11:21:33;4.93;;;4.50;;
15402;SDS011;7799;53.478;10.170;2023-03-01T11:24:03;5.17;;;4.77;;
15402;SDS011;7799;53.478;10.170;2023-03-01T11:26:31;4.70;;;4.30;;
15402;SDS011;7799;53.478;10.170;2023-03-01T11:29:03;4.67;;;4.27;;
15402;SDS011;7799;53.478;10.170;2023-03-01T11:31:32;5.10;;;4.70;;
15402;SDS011;7799;53.478;10.170;2023-03-01T11:33:59;4.97;;;4.57;;
15402;SDS011;7799;53.478;10.170;2023-03-01T11:36:32;4.67;;;4.27;;
15402;SDS011;7799;53.478;10.170;2023-03-01T11:39:05;5.60;;;5.10;;
15402;SDS011;7799;53.478;10.170;2023-03-01T11:41:40;5.20;;;4.80;;
15402;SDS011;7799;53.478;10.170;2023-03-01T11:44:10;4.67;;;4.37;;
15402;SDS011;7799;53.478;10.170;2023-03-01T11:46:56;5.10;;;4.70;;
15402;SDS011;7799;53.478;10.170;2023-03-01T11:49:44;4.50;;;4.10;;
15402;SDS011;7799;53.478;10.170;2023-03-01T11:52:29;4.73;;;4.33;;
15402;SDS011;7799;53.478;10.170;2023-03-01T11:55:07;4.93;;;4.53;;
15402;SDS011;7799;53.478;10.170;2023-03-01T11:57:44;4.20;;;3.90;;
15402;SDS011;7799;53.478;10.170;2023-03-01T12:00:21;4.90;;;4.50;;
15402;SDS011;7799;53.478;10.170;2023-03-01T12:03:11;4.80;;;4.40;;
15402;SDS011;7799;53.478;10.170;2023-03-01T12:06:02;5.20;;;4.80;;
15402;SDS011;7799;53.478;10.170;2023-03-01T12:08:50;5.23;;;4.73;;
15402;SDS011;7799;53.478;10.170;2023-03-01T12:11:26;5.10;;;4.70;;
15402;SDS011;7799;53.478;10.170;2023-03-01T12:14:02;5.03;;;4.63;;
15402;SDS011;7799;53.478;10.170;2023-03-01T12:16:56;4.87;;;4.47;;
15402;SDS011;7799;53.478;10.170;2023-03-01T12:19:34;5.27;;;4.77;;
15402;SDS011;7799;53.478;10.170;2023-03-01T12:22:12;5.47;;;4.97;;
15402;SDS011;7799;53.478;10.170;2023-03-01T12:24:51;5.63;;;5.13;;
15402;SDS011;7799;53.478;10.170;2023-03-01T12:27:29;5.20;;;4.80;;
15402;SDS011;7799;53.478;10.170;2023-03-01T12:30:05;4.63;;;4.23;;
15402;SDS011;7799;53.478;10.170;2023-03-01T12:32:43;4.93;;;4.53;;
15402;SDS011;7799;53.478;10.170;2023-03-01T12:35:24;4.20;;;3.90;;
15402;SDS011;7799;53.478;10.170;2023-03-01T12:38:15;4.50;;;4.10;;
15402;SDS011;7799;53.478;10.170;2023-03-01T12:40:57;4.63;;;4.23;;
15402;SDS011;7799;53.478;10.170;2023-03-01T12:43:36;4.87;;;4.47;;
15402;SDS011;7799;53.478;10.170;2023-03-01T12:46:15;4.33;;;4.03;;
15402;SDS011;7799;53.478;10.170;2023-03-01T12:48:50;5.20;;;4.80;;
15402;SDS011;7799;53.478;10.170;2023-03-01T12:51:22;5.33;;;4.90;;
15402;SDS011;7799;53.478;10.170;2023-03-01T12:53:51;4.53;;;4.13;;
15402;SDS011;7799;53.478;10.170;2023-03-01T12:56:21;4.40;;;4.00;;
15402;SDS011;7799;53.478;10.170;2023-03-01T12:58:53;4.63;;;4.23;;
15402;SDS011;7799;53.478;10.170;2023-03-01T13:01:26;4.30;;;4.00;;
15402;SDS011;7799;53.478;10.170;2023-03-01T13:06:53;4.73;;;4.33;;
15402;SDS011;7799;53.478;10.170;2023-03-01T13:09:26;4.87;;;4.47;;
15402;SDS011;7799;53.478;10.170;2023-03-01T13:11:56;4.00;;;3.70;;
15402;SDS011;7799;53.478;10.170;2023-03-01T13:14:37;4.40;;;4.00;;
15402;SDS011;7799;53.478;10.170;2023-03-01T13:17:30;4.90;;;4.40;;
15402;SDS011;7799;53.478;10.170;2023-03-01T13:19:59;4.40;;;4.07;;
15402;SDS011;7799;53.478;10.170;2023-03-01T13:22:27;5.03;;;4.63;;
15402;SDS011;7799;53.478;10.170;2023-03-01T13:25:11;4.43;;;4.10;;
15402;SDS011;7799;53.478;10.170;2023-03-01T13:27:40;4.10;;;3.80;;
15402;SDS011;7799;53.478;10.170;2023-03-01T13:30:37;4.20;;;3.90;;
15402;SDS011;7799;53.478;10.170;2023-03-01T13:36:09;3.70;;;3.40;;
15402;SDS011;7799;53.478;10.170;2023-03-01T13:38:45;3.60;;;3.37;;
15402;SDS011;7799;53.478;10.170;2023-03-01T13:41:13;3.60;;;3.30;;
15402;SDS011;7799;53.478;10.170;2023-03-01T13:43:41;3.83;;;3.53;;
15402;SDS011;7799;53.478;10.170;2023-03-01T13:46:11;3.97;;;3.67;;
15402;SDS011;7799;53.478;10.170;2023-03-01T13:48:41;3.87;;;3.57;;
15402;SDS011;7799;53.478;10.170;2023-03-01T13:51:10;4.07;;;3.77;;
15402;SDS011;7799;53.478;10.170;2023-03-01T13:53:39;4.10;;;3.77;;
15402;SDS011;7799;53.478;10.170;2023-03-01T13:56:08;3.70;;;3.40;;
15402;SDS011;7799;53.478;10.170;2023-03-01T13:58:44;3.13;;;2.93;;
15402;SDS011;7799;53.478;10.170;2023-03-01T14:01:21;2.80;;;2.60;;
15402;SDS011;7799;53.478;10.170;2023-03-01T14:03:50;3.03;;;2.83;;
15402;SDS011;7799;53.478;10.170;2023-03-01T14:06:18;3.20;;;3.00;;
15402;SDS011;7799;53.478;10.170;2023-03-01T14:08:48;2.83;;;2.63;;
15402;SDS011;7799;53.478;10.170;2023-03-01T14:11:23;3.37;;;3.17;;
15402;SDS011;7799;53.478;10.170;2023-03-01T14:14:09;2.63;;;2.43;;
15402;SDS011;7799;53.478;10.170;2023-03-01T14:16:56;3.20;;;2.90;;
15402;SDS011;7799;53.478;10.170;2023-03-01T14:19:30;2.30;;;2.10;;
15402;SDS011;7799;53.478;10.170;2023-03-01T14:21:58;2.90;;;2.70;;
15402;SDS011;7799;53.478;10.170;2023-03-01T14:24:29;2.60;;;2.40;;
15402;SDS011;7799;53.478;10.170;2023-03-01T14:26:57;2.03;;;1.93;;
15402;SDS011;7799;53.478;10.170;2023-03-01T14:29:25;2.63;;;2.43;;
15402;SDS011;7799;53.478;10.170;2023-03-01T14:31:54;3.27;;;2.70;;
15402;SDS011;7799;53.478;10.170;2023-03-01T14:34:21;3.47;;;3.17;;
15402;SDS011;7799;53.478;10.170;2023-03-01T14:36:49;3.10;;;2.80;;
15402;SDS011;7799;53.478;10.170;2023-03-01T14:39:16;3.27;;;2.97;;
15402;SDS011;7799;53.478;10.170;2023-03-01T14:41:43;3.37;;;2.90;;
15402;SDS011;7799;53.478;10.170;2023-03-01T14:44:12;3.23;;;2.93;;
15402;SDS011;7799;53.478;10.170;2023-03-01T14:46:43;3.07;;;2.77;;
15402;SDS011;7799;53.478;10.170;2023-03-01T14:49:12;2.77;;;2.57;;
15402;SDS011;7799;53.478;10.170;2023-03-01T14:51:41;3.27;;;2.97;;
15402;SDS011;7799;53.478;10.170;2023-03-01T14:54:18;3.30;;;2.27;;
15402;SDS011;7799;53.478;10.170;2023-03-01T14:56:47;2.47;;;2.27;;
15402;SDS011;7799;53.478;10.170;2023-03-01T14:59:18;2.70;;;2.50;;
15402;SDS011;7799;53.478;10.170;2023-03-01T15:01:47;2.70;;;2.23;;
15402;SDS011;7799;53.478;10.170;2023-03-01T15:04:16;2.43;;;2.23;;
15402;SDS011;7799;53.478;10.170;2023-03-01T15:06:43;2.87;;;2.40;;
15402;SDS011;7799;53.478;10.170;2023-03-01T15:09:12;2.50;;;2.30;;
15402;SDS011;7799;53.478;10.170;2023-03-01T15:11:41;2.70;;;2.50;;